createdAt,value
2019-03-26T00:03:17.949Z,99513.49
2019-03-26T00:08:21.694Z,99519.27
2019-03-26T00:13:25.563Z,99511.73
2019-03-26T00:18:29.366Z,99498.21
2019-03-26T00:23:33.143Z,99500.80
2019-03-26T00:28:37.074Z,99493.78
2019-03-26T00:33:40.909Z,99496.23
2019-03-26T00:38:44.753Z,99499.84
2019-03-26T00:43:48.587Z,99514.59
2019-03-26T00:48:52.377Z,99520.69
2019-03-26T00:53:56.213Z,99522.84
2019-03-26T00:59:00.054Z,99524.99
2019-03-26T01:04:03.948Z,99529.30
2019-03-26T01:09:08.259Z,99533.37
2019-03-26T01:14:12.260Z,99542.75
2019-03-26T01:19:16.063Z,99556.00
2019-03-26T01:24:20.064Z,99557.69
2019-03-26T01:29:23.895Z,99557.40
2019-03-26T01:34:27.816Z,99559.69
2019-03-26T01:39:32.316Z,99571.80
2019-03-26T01:44:36.295Z,99575.23
2019-03-26T01:49:40.092Z,99579.82
2019-03-26T01:54:43.913Z,99585.03
2019-03-26T01:59:47.706Z,99589.13
2019-03-26T02:04:59.812Z,99585.68
2019-03-26T02:09:57.222Z,99587.80
2019-03-26T02:15:01.444Z,99588.77
2019-03-26T02:20:05.680Z,99593.19
2019-03-26T02:25:09.719Z,99604.16
2019-03-26T02:30:13.488Z,99609.35
2019-03-26T02:35:19.198Z,99616.40
2019-03-26T02:40:23.599Z,99625.05
2019-03-26T02:45:27.373Z,99622.30
2019-03-26T02:50:31.244Z,99618.86
2019-03-26T02:55:35.047Z,99625.08
2019-03-26T03:00:38.953Z,99632.42
2019-03-26T03:05:42.723Z,99643.37
2019-03-26T03:10:46.580Z,99654.83
2019-03-26T03:15:50.399Z,99666.58
2019-03-26T03:20:54.332Z,99677.72
2019-03-26T03:25:58.481Z,99679.02
2019-03-26T03:31:02.401Z,99690.30
2019-03-26T03:36:06.318Z,99691.76
2019-03-26T03:41:10.637Z,99703.69
2019-03-26T03:46:14.436Z,99711.72
2019-03-26T03:51:23.446Z,99715.31
2019-03-26T03:56:30.276Z,99711.55
2019-03-26T04:01:34.189Z,99730.02
2019-03-26T04:06:37.949Z,99733.77
2019-03-26T04:11:42.105Z,99745.72
2019-03-26T04:16:46.038Z,99757.48
2019-03-26T04:21:49.822Z,99757.33
2019-03-26T04:26:53.729Z,99765.66
2019-03-26T04:31:57.477Z,99780.22
2019-03-26T04:37:01.551Z,99784.66
2019-03-26T04:42:05.478Z,99794.30
2019-03-26T04:47:09.275Z,99794.79
2019-03-26T04:52:13.129Z,99796.09
2019-03-26T04:57:16.875Z,99785.78
2019-03-26T05:02:20.656Z,99789.72
2019-03-26T05:07:24.467Z,99795.76
2019-03-26T05:12:28.685Z,99794.46
2019-03-26T05:17:32.767Z,99790.54
2019-03-26T05:22:36.605Z,99787.75
2019-03-26T05:27:45.527Z,99785.80
2019-03-26T05:32:46.119Z,99800.84
2019-03-26T05:37:50.224Z,99798.38
2019-03-26T05:42:54.025Z,99806.89
2019-03-26T05:47:57.847Z,99812.46
2019-03-26T05:53:01.656Z,99817.20
2019-03-26T05:58:05.401Z,99818.99
2019-03-26T06:03:09.341Z,99820.61
2019-03-26T06:08:13.116Z,99822.02
2019-03-26T06:13:17.398Z,99811.05
2019-03-26T06:18:21.246Z,99805.95
2019-03-26T06:23:24.975Z,99816.63
2019-03-26T06:28:28.756Z,99819.25
2019-03-26T06:33:32.596Z,99823.20
2019-03-26T06:38:36.591Z,99832.03
2019-03-26T06:43:40.333Z,99834.33
2019-03-26T06:48:44.096Z,99828.39
2019-03-26T06:53:47.874Z,99830.31
2019-03-26T06:58:52.041Z,99837.84
2019-03-26T07:03:56.329Z,99850.88
2019-03-26T07:09:00.115Z,99850.45
2019-03-26T07:14:04.080Z,99861.03
2019-03-26T07:19:08.030Z,99858.88
2019-03-26T07:24:11.789Z,99864.98
2019-03-26T07:29:15.774Z,99863.37
2019-03-26T07:34:19.904Z,99862.72
2019-03-26T07:39:23.671Z,99856.66
2019-03-26T07:44:27.582Z,99859.14
2019-03-26T07:49:31.325Z,99855.48
2019-03-26T07:54:35.092Z,99863.53
2019-03-26T07:59:38.858Z,99859.06
2019-03-26T08:04:42.750Z,99849.51
2019-03-26T08:09:46.685Z,99865.84
2019-03-26T08:14:50.463Z,99871.02
2019-03-26T08:19:54.198Z,99870.38
2019-03-26T08:24:58.030Z,99866.89
2019-03-26T08:30:01.790Z,99866.45
2019-03-26T08:35:05.924Z,99872.41
2019-03-26T08:40:09.985Z,99871.23
2019-03-26T08:45:14.119Z,99865.05
2019-03-26T08:50:17.934Z,99858.16
2019-03-26T08:55:21.676Z,99852.44
2019-03-26T09:00:25.464Z,99859.23
2019-03-26T09:05:29.326Z,99859.11
2019-03-26T09:10:33.115Z,99864.44
2019-03-26T09:15:36.950Z,99856.66
2019-03-26T09:20:40.734Z,99828.92
2019-03-26T09:25:44.579Z,99849.42
2019-03-26T09:30:48.347Z,99839.50
2019-03-26T09:35:52.247Z,99845.81
2019-03-26T09:40:55.996Z,99849.16
2019-03-26T09:46:00.324Z,99859.02
2019-03-26T09:51:04.295Z,99858.23
2019-03-26T09:56:08.053Z,99855.34
2019-03-26T10:01:11.820Z,99855.98
2019-03-26T10:06:23.354Z,99852.27
2019-03-26T10:11:21.263Z,99845.53
2019-03-26T10:16:25.021Z,99857.28
2019-03-26T10:21:28.999Z,99847.73
2019-03-26T10:26:32.743Z,99832.44
2019-03-26T10:31:36.508Z,99845.25
2019-03-26T10:36:41.662Z,99835.16
2019-03-26T10:41:45.854Z,99831.71
2019-03-26T10:46:49.712Z,99814.70
2019-03-26T10:51:53.475Z,99824.42
2019-03-26T10:56:57.225Z,99815.22
2019-03-26T11:02:01.105Z,99816.93
2019-03-26T11:07:05.279Z,99803.72
2019-03-26T11:12:09.087Z,99799.73
2019-03-26T11:17:12.833Z,99813.13
2019-03-26T11:22:16.578Z,99803.09
2019-03-26T11:27:20.385Z,99800.94
2019-03-26T11:32:24.389Z,99795.81
2019-03-26T11:37:28.166Z,99778.22
2019-03-26T11:42:31.930Z,99772.76
2019-03-26T11:47:36.062Z,99778.89
2019-03-26T11:52:40.269Z,99761.51
2019-03-26T11:57:44.136Z,99750.54
2019-03-26T12:02:47.886Z,99742.94
2019-03-26T12:07:51.668Z,99747.63
2019-03-26T12:12:55.866Z,99741.40
2019-03-26T12:17:59.595Z,99724.51
2019-03-26T12:23:03.346Z,99719.77
2019-03-26T12:28:07.181Z,99731.50
2019-03-26T12:33:11.146Z,99734.28
2019-03-26T12:38:21.497Z,99724.54
2019-03-26T12:43:25.336Z,99713.95
2019-03-26T12:48:29.125Z,99711.52
2019-03-26T12:53:32.861Z,99691.06
2019-03-26T12:58:36.879Z,99668.89
2019-03-26T13:03:40.826Z,99672.67
2019-03-26T13:08:44.723Z,99687.05
2019-03-26T13:13:48.541Z,99691.13
2019-03-26T13:18:52.409Z,99671.00
2019-03-26T13:23:56.169Z,99656.64
2019-03-26T13:29:00.089Z,99646.11
2019-03-26T13:34:03.872Z,99633.73
2019-03-26T13:39:09.650Z,99646.34
2019-03-26T13:44:13.426Z,99622.47
2019-03-26T13:49:17.209Z,99634.84
2019-03-26T13:54:20.978Z,99630.14
2019-03-26T13:59:24.882Z,99635.30
2019-03-26T14:04:28.644Z,99624.29
2019-03-26T14:09:32.428Z,99619.56
2019-03-26T14:14:36.283Z,99599.72
2019-03-26T14:19:40.194Z,99585.88
2019-03-26T14:24:43.974Z,99585.42
2019-03-26T14:29:47.887Z,99571.05
2019-03-26T14:34:51.996Z,99551.36
2019-03-26T14:39:55.940Z,99531.90
2019-03-26T14:44:59.704Z,99539.34
2019-03-26T14:50:04.489Z,99547.22
2019-03-26T14:55:08.518Z,99551.30
2019-03-26T15:00:12.982Z,99529.48
2019-03-26T15:05:17.020Z,99542.95
2019-03-26T15:10:23.331Z,99525.21
2019-03-26T15:15:26.528Z,99543.36
2019-03-26T15:20:30.325Z,99559.60
2019-03-26T15:25:34.117Z,99569.03
2019-03-26T15:30:37.942Z,99585.97
2019-03-26T15:35:41.739Z,99590.79
2019-03-26T15:40:45.618Z,99595.51
2019-03-26T15:45:50.027Z,99595.61
2019-03-26T15:50:53.858Z,99573.11
2019-03-26T15:55:57.608Z,99590.48
2019-03-26T16:01:01.399Z,99591.09
2019-03-26T16:06:05.349Z,99608.46
2019-03-26T16:11:09.131Z,99618.13
2019-03-26T16:16:12.993Z,99610.34
2019-03-26T16:21:16.839Z,99621.47
2019-03-26T16:26:20.897Z,99610.64
2019-03-26T16:31:25.028Z,99610.38
2019-03-26T16:36:28.902Z,99634.42
2019-03-26T16:41:32.680Z,99631.48
2019-03-26T16:46:36.602Z,99646.55
2019-03-26T16:51:40.417Z,99647.43
2019-03-26T16:56:44.189Z,99642.98
2019-03-26T17:01:48.033Z,99658.48
2019-03-26T17:06:52.031Z,99658.77
2019-03-26T17:12:03.262Z,99650.37
2019-03-26T17:17:01.586Z,99652.06
2019-03-26T17:22:05.447Z,99653.88
2019-03-26T17:27:09.250Z,99654.31
2019-03-26T17:32:13.369Z,99658.64
2019-03-26T17:37:17.492Z,99675.42
2019-03-26T17:42:21.307Z,99697.45
2019-03-26T17:47:25.085Z,99683.67
2019-03-26T17:52:28.997Z,99689.44
2019-03-26T17:57:32.833Z,99695.95
2019-03-26T18:02:36.662Z,99713.60
2019-03-26T18:07:40.556Z,99710.41
2019-03-26T18:12:46.621Z,99709.59
2019-03-26T18:17:50.153Z,99724.58
2019-03-26T18:22:54.035Z,99694.13
2019-03-26T18:27:58.132Z,99689.26
2019-03-26T18:33:01.986Z,99671.99
2019-03-26T18:38:06.753Z,99698.71
2019-03-26T18:43:10.610Z,99709.16
2019-03-26T18:48:15.076Z,99708.34
2019-03-26T18:53:19.121Z,99716.47
2019-03-26T18:58:22.990Z,99713.52
2019-03-26T19:03:26.965Z,99723.16
2019-03-26T19:08:30.845Z,99733.98
2019-03-26T19:13:34.659Z,99772.92
2019-03-26T19:18:38.458Z,99760.65
2019-03-26T19:23:42.207Z,99773.77
2019-03-26T19:28:46.069Z,99780.68
2019-03-26T19:33:49.842Z,99791.41
2019-03-26T19:38:53.746Z,99801.44
2019-03-26T19:43:57.740Z,99797.36
2019-03-26T19:49:01.656Z,99813.11
2019-03-26T19:54:05.508Z,99811.69
2019-03-26T19:59:09.480Z,99811.80
2019-03-26T20:04:13.350Z,99821.77
2019-03-26T20:09:17.185Z,99833.89
2019-03-26T20:14:20.980Z,99831.44
2019-03-26T20:19:25.025Z,99843.73
2019-03-26T20:24:28.795Z,99870.06
2019-03-26T20:29:32.633Z,99892.34
2019-03-26T20:34:36.381Z,99908.36
2019-03-26T20:39:40.259Z,99898.55
2019-03-26T20:44:44.289Z,99928.98
2019-03-26T20:49:48.059Z,99939.47
2019-03-26T20:54:51.950Z,99949.14
2019-03-26T20:59:56.000Z,99944.55
2019-03-26T21:04:59.957Z,99961.89
2019-03-26T21:10:04.600Z,99965.64
2019-03-26T21:15:09.951Z,99972.05
2019-03-26T21:20:13.735Z,99983.00
2019-03-26T21:25:17.679Z,99977.90
2019-03-26T21:30:21.746Z,99988.23
2019-03-26T21:35:28.659Z,99992.14
2019-03-26T21:40:31.400Z,99991.81
2019-03-26T21:45:45.106Z,100008.50
2019-03-26T21:50:50.135Z,100010.79
2019-03-26T21:56:05.892Z,100013.87
2019-03-26T22:00:59.740Z,100022.90
2019-03-26T22:06:04.137Z,100022.54
2019-03-26T22:11:08.345Z,100033.53
2019-03-26T22:16:13.301Z,100042.21
2019-03-26T22:21:17.169Z,100057.92
2019-03-26T22:26:21.041Z,100056.11
2019-03-26T22:31:25.077Z,100050.06
2019-03-26T22:36:28.863Z,100058.69
2019-03-26T22:41:32.684Z,100055.21
2019-03-26T22:46:36.493Z,100061.80
2019-03-26T22:51:40.377Z,100068.13
2019-03-26T22:56:44.140Z,100069.39
2019-03-26T23:01:50.930Z,100081.48
2019-03-26T23:06:53.863Z,100086.41
2019-03-26T23:11:57.921Z,100082.45
2019-03-26T23:17:02.147Z,100084.20
2019-03-26T23:22:05.898Z,100095.50
2019-03-26T23:27:09.885Z,100099.36
2019-03-26T23:32:13.833Z,100101.80
2019-03-26T23:37:17.626Z,100109.37
2019-03-26T23:42:21.576Z,100116.91
2019-03-26T23:47:25.415Z,100121.39
2019-03-26T23:52:29.503Z,100121.81
2019-03-26T23:57:33.339Z,100139.12
